Аэропорт: Угольный. Анадырь

ICAO: UHMA

METAR:
2019/05/26 14:00
UHMA 261400Z 36002MPS 310V030 CAVOK 01/M00 Q1007 R01/////// NOSIG RMK END R01/02003MPS QFE752/1002
METAR:
2019/05/26 12:21
TAF UHMA 261048Z 2612/2712 35005MPS 9999 SCT030 
      TEMPO 2612/2622 30003MPS 3100 BR SCT007 BKN020 
      TEMPO 2622/2708 04006MPS 5000 -RA SCT015 BKN025 
      BECMG 2708/2709 03003MPS 
      TEMPO 2709/2712 08007MPS 3100 -RA BR SCT005 BKN017